sensor_id;sensor_type;location;lat;lon;timestamp;temperature;humidity
13980;DHT22;73871;49.900;8.594;2024-03-23T00:54:16;10.00;99.90
13980;DHT22;73871;49.900;8.594;2024-03-23T00:56:42;10.10;99.90
13980;DHT22;73871;49.900;8.594;2024-03-23T00:59:08;10.10;99.90
13980;DHT22;73871;49.900;8.594;2024-03-23T01:01:34;10.20;99.90
13980;DHT22;73871;49.900;8.594;2024-03-23T01:04:00;10.20;99.90
13980;DHT22;73871;49.900;8.594;2024-03-23T01:06:26;10.20;99.90
13980;DHT22;73871;49.900;8.594;2024-03-23T01:08:51;10.10;99.90
13980;DHT22;73871;49.900;8.594;2024-03-23T01:11:18;10.10;99.90
13980;DHT22;73871;49.900;8.594;2024-03-23T01:13:43;10.20;99.90
13980;DHT22;73871;49.900;8.594;2024-03-23T01:16:09;10.20;99.90
13980;DHT22;73871;49.900;8.594;2024-03-23T01:18:35;10.20;99.90
13980;DHT22;73871;49.900;8.594;2024-03-23T01:21:01;10.10;99.90
13980;DHT22;73871;49.900;8.594;2024-03-23T01:23:26;10.20;99.90
13980;DHT22;73871;49.900;8.594;2024-03-23T01:25:55;10.20;99.90
13980;DHT22;73871;49.900;8.594;2024-03-23T01:28:22;10.30;99.90
13980;DHT22;73871;49.900;8.594;2024-03-23T01:30:48;10.30;99.90
13980;DHT22;73871;49.900;8.594;2024-03-23T01:33:14;10.30;99.90
13980;DHT22;73871;49.900;8.594;2024-03-23T01:35:40;10.30;99.90
13980;DHT22;73871;49.900;8.594;2024-03-23T01:38:06;10.40;99.90
13980;DHT22;73871;49.900;8.594;2024-03-23T01:40:32;10.40;99.90
13980;DHT22;73871;49.900;8.594;2024-03-23T01:43:02;10.40;99.90
13980;DHT22;73871;49.900;8.594;2024-03-23T01:45:29;10.50;99.90
13980;DHT22;73871;49.900;8.594;2024-03-23T01:47:55;10.50;99.90
13980;DHT22;73871;49.900;8.594;2024-03-23T01:50:21;10.50;99.90
13980;DHT22;73871;49.900;8.594;2024-03-23T01:52:48;10.50;99.90
13980;DHT22;73871;49.900;8.594;2024-03-23T01:55:14;10.40;99.90
13980;DHT22;73871;49.900;8.594;2024-03-23T01:57:40;10.40;99.90
13980;DHT22;73871;49.900;8.594;2024-03-23T02:00:06;10.60;99.90
13980;DHT22;73871;49.900;8.594;2024-03-23T02:02:47;10.60;99.90
13980;DHT22;73871;49.900;8.594;2024-03-23T02:05:13;10.40;99.90
13980;DHT22;73871;49.900;8.594;2024-03-23T02:07:40;10.30;99.90
13980;DHT22;73871;49.900;8.594;2024-03-23T02:10:07;10.30;99.90
13980;DHT22;73871;49.900;8.594;2024-03-23T02:12:33;10.10;99.90
13980;DHT22;73871;49.900;8.594;2024-03-23T02:14:59;10.10;99.90
13980;DHT22;73871;49.900;8.594;2024-03-23T02:17:25;10.10;99.90
13980;DHT22;73871;49.900;8.594;2024-03-23T02:19:50;10.10;99.90
13980;DHT22;73871;49.900;8.594;2024-03-23T02:22:16;10.00;99.90
13980;DHT22;73871;49.900;8.594;2024-03-23T02:24:42;10.00;99.90
13980;DHT22;73871;49.900;8.594;2024-03-23T02:27:08;10.10;99.90
13980;DHT22;73871;49.900;8.594;2024-03-23T02:29:34;10.00;99.90
13980;DHT22;73871;49.900;8.594;2024-03-23T02:32:00;10.00;99.90
13980;DHT22;73871;49.900;8.594;2024-03-23T02:34:27;10.00;99.90
13980;DHT22;73871;49.900;8.594;2024-03-23T02:36:52;9.90;99.90
13980;DHT22;73871;49.900;8.594;2024-03-23T02:39:18;9.90;99.90
13980;DHT22;73871;49.900;8.594;2024-03-23T02:41:44;10.00;99.90
13980;DHT22;73871;49.900;8.594;2024-03-23T02:44:09;10.00;99.90
13980;DHT22;73871;49.900;8.594;2024-03-23T02:46:38;9.90;99.90
13980;DHT22;73871;49.900;8.594;2024-03-23T02:49:04;9.90;99.90
13980;DHT22;73871;49.900;8.594;2024-03-23T02:51:30;9.80;99.90
13980;DHT22;73871;49.900;8.594;2024-03-23T02:53:56;9.70;99.90
13980;DHT22;73871;49.900;8.594;2024-03-23T02:56:22;9.70;99.90
13980;DHT22;73871;49.900;8.594;2024-03-23T02:58:48;9.70;99.90
13980;DHT22;73871;49.900;8.594;2024-03-23T03:01:14;9.60;99.90
13980;DHT22;73871;49.900;8.594;2024-03-23T03:03:40;9.50;99.90
13980;DHT22;73871;49.900;8.594;2024-03-23T03:06:06;9.40;99.90
13980;DHT22;73871;49.900;8.594;2024-03-23T03:08:31;9.30;99.90
13980;DHT22;73871;49.900;8.594;2024-03-23T03:10:57;9.20;99.90
13980;DHT22;73871;49.900;8.594;2024-03-23T03:13:23;9.20;99.90
13980;DHT22;73871;49.900;8.594;2024-03-23T03:15:49;9.30;99.90
13980;DHT22;73871;49.900;8.594;2024-03-23T03:18:14;9.30;99.90
13980;DHT22;73871;49.900;8.594;2024-03-23T03:20:40;9.30;99.90
13980;DHT22;73871;49.900;8.594;2024-03-23T03:23:07;9.30;99.90
13980;DHT22;73871;49.900;8.594;2024-03-23T03:25:33;9.30;99.90
13980;DHT22;73871;49.900;8.594;2024-03-23T03:27:59;9.30;99.90
13980;DHT22;73871;49.900;8.594;2024-03-23T03:30:25;9.30;99.90
13980;DHT22;73871;49.900;8.594;2024-03-23T03:32:53;9.30;99.90
13980;DHT22;73871;49.900;8.594;2024-03-23T03:35:19;9.20;99.90
13980;DHT22;73871;49.900;8.594;2024-03-23T03:37:45;9.10;99.90
13980;DHT22;73871;49.900;8.594;2024-03-23T03:40:12;9.10;99.90
13980;DHT22;73871;49.900;8.594;2024-03-23T03:42:38;9.10;99.90
13980;DHT22;73871;49.900;8.594;2024-03-23T03:45:04;9.20;99.90
13980;DHT22;73871;49.900;8.594;2024-03-23T03:47:30;9.30;99.90
13980;DHT22;73871;49.900;8.594;2024-03-23T03:49:56;9.40;99.90
13980;DHT22;73871;49.900;8.594;2024-03-23T03:52:22;9.50;99.90
13980;DHT22;73871;49.900;8.594;2024-03-23T03:54:48;9.50;99.90
13980;DHT22;73871;49.900;8.594;2024-03-23T03:57:13;9.60;99.90
13980;DHT22;73871;49.900;8.594;2024-03-23T03:59:39;9.60;99.90
13980;DHT22;73871;49.900;8.594;2024-03-23T04:02:05;9.70;99.90
13980;DHT22;73871;49.900;8.594;2024-03-23T04:04:31;9.80;99.90
13980;DHT22;73871;49.900;8.594;2024-03-23T04:07:00;9.90;99.90
13980;DHT22;73871;49.900;8.594;2024-03-23T04:09:26;9.90;99.90
13980;DHT22;73871;49.900;8.594;2024-03-23T04:11:52;10.00;99.90
13980;DHT22;73871;49.900;8.594;2024-03-23T04:14:17;10.00;99.90
13980;DHT22;73871;49.900;8.594;2024-03-23T04:16:43;10.10;99.90
13980;DHT22;73871;49.900;8.594;2024-03-23T04:19:09;10.20;99.90
13980;DHT22;73871;49.900;8.594;2024-03-23T04:21:36;10.30;99.90
13980;DHT22;73871;49.900;8.594;2024-03-23T04:24:03;10.30;99.90
13980;DHT22;73871;49.900;8.594;2024-03-23T04:26:29;10.30;99.90
13980;DHT22;73871;49.900;8.594;2024-03-23T04:28:55;10.30;99.90
13980;DHT22;73871;49.900;8.594;2024-03-23T04:31:20;10.30;99.90
13980;DHT22;73871;49.900;8.594;2024-03-23T04:33:47;10.20;99.90
13980;DHT22;73871;49.900;8.594;2024-03-23T04:36:13;10.00;99.90
13980;DHT22;73871;49.900;8.594;2024-03-23T04:38:39;9.90;99.90
13980;DHT22;73871;49.900;8.594;2024-03-23T04:41:05;9.70;99.90
13980;DHT22;73871;49.900;8.594;2024-03-23T04:43:30;9.60;99.90
13980;DHT22;73871;49.900;8.594;2024-03-23T04:45:56;9.50;99.90
13980;DHT22;73871;49.900;8.594;2024-03-23T04:48:22;9.30;99.90
13980;DHT22;73871;49.900;8.594;2024-03-23T04:50:49;9.10;99.90
13980;DHT22;73871;49.900;8.594;2024-03-23T04:53:15;8.90;99.90
13980;DHT22;73871;49.900;8.594;2024-03-23T04:55:42;8.80;99.90
13980;DHT22;73871;49.900;8.594;2024-03-23T04:58:08;8.80;99.90
13980;DHT22;73871;49.900;8.594;2024-03-23T05:00:34;8.70;99.90
13980;DHT22;73871;49.900;8.594;2024-03-23T05:03:00;8.60;99.90
13980;DHT22;73871;49.900;8.594;2024-03-23T05:05:26;8.50;99.90
13980;DHT22;73871;49.900;8.594;2024-03-23T05:07:51;8.40;99.90
13980;DHT22;73871;49.900;8.594;2024-03-23T05:10:17;8.40;99.90
13980;DHT22;73871;49.900;8.594;2024-03-23T05:12:43;8.30;99.90
13980;DHT22;73871;49.900;8.594;2024-03-23T05:15:10;8.20;99.90
13980;DHT22;73871;49.900;8.594;2024-03-23T05:17:36;8.20;99.90
13980;DHT22;73871;49.900;8.594;2024-03-23T05:20:03;8.20;99.90
13980;DHT22;73871;49.900;8.594;2024-03-23T05:22:29;8.20;99.90
13980;DHT22;73871;49.900;8.594;2024-03-23T05:24:56;8.10;99.90
13980;DHT22;73871;49.900;8.594;2024-03-23T05:27:22;8.10;99.90
13980;DHT22;73871;49.900;8.594;2024-03-23T05:29:48;8.10;99.90
13980;DHT22;73871;49.900;8.594;2024-03-23T05:32:14;8.00;99.90
13980;DHT22;73871;49.900;8.594;2024-03-23T05:34:40;8.00;99.90
13980;DHT22;73871;49.900;8.594;2024-03-23T05:37:06;8.10;99.90
13980;DHT22;73871;49.900;8.594;2024-03-23T05:39:31;8.20;99.90
13980;DHT22;73871;49.900;8.594;2024-03-23T05:41:57;8.20;99.90
13980;DHT22;73871;49.900;8.594;2024-03-23T05:44:23;8.20;99.90
13980;DHT22;73871;49.900;8.594;2024-03-23T05:46:49;8.30;99.90
13980;DHT22;73871;49.900;8.594;2024-03-23T05:49:16;8.30;99.90
13980;DHT22;73871;49.900;8.594;2024-03-23T05:51:42;8.30;99.90
13980;DHT22;73871;49.900;8.594;2024-03-23T05:54:08;8.40;99.90
13980;DHT22;73871;49.900;8.594;2024-03-23T05:56:34;8.40;99.90
13980;DHT22;73871;49.900;8.594;2024-03-23T05:59:00;8.40;99.90
13980;DHT22;73871;49.900;8.594;2024-03-23T06:01:26;8.40;99.90
13980;DHT22;73871;49.900;8.594;2024-03-23T06:03:54;8.40;99.90
13980;DHT22;73871;49.900;8.594;2024-03-23T06:06:20;8.30;99.90
13980;DHT22;73871;49.900;8.594;2024-03-23T06:08:46;8.30;99.90
13980;DHT22;73871;49.900;8.594;2024-03-23T06:11:12;8.30;99.90
13980;DHT22;73871;49.900;8.594;2024-03-23T06:13:37;8.30;99.90
13980;DHT22;73871;49.900;8.594;2024-03-23T06:16:03;8.20;99.90
13980;DHT22;73871;49.900;8.594;2024-03-23T06:18:29;8.20;99.90
13980;DHT22;73871;49.900;8.594;2024-03-23T06:20:55;8.20;99.90
13980;DHT22;73871;49.900;8.594;2024-03-23T06:23:21;8.20;99.90
13980;DHT22;73871;49.900;8.594;2024-03-23T06:25:47;8.30;99.90
13980;DHT22;73871;49.900;8.594;2024-03-23T06:28:12;8.30;99.90
13980;DHT22;73871;49.900;8.594;2024-03-23T06:30:39;8.40;99.90
13980;DHT22;73871;49.900;8.594;2024-03-23T06:33:04;8.40;99.90
13980;DHT22;73871;49.900;8.594;2024-03-23T06:35:31;8.30;99.90
13980;DHT22;73871;49.900;8.594;2024-03-23T06:37:57;8.30;99.90
13980;DHT22;73871;49.900;8.594;2024-03-23T06:40:24;8.20;99.90
13980;DHT22;73871;49.900;8.594;2024-03-23T06:42:49;8.10;99.90
13980;DHT22;73871;49.900;8.594;2024-03-23T06:45:16;8.20;99.90
13980;DHT22;73871;49.900;8.594;2024-03-23T06:47:42;8.20;99.90
13980;DHT22;73871;49.900;8.594;2024-03-23T06:50:08;8.20;99.90
13980;DHT22;73871;49.900;8.594;2024-03-23T06:52:36;8.20;99.90
13980;DHT22;73871;49.900;8.594;2024-03-23T06:55:01;8.30;99.90
13980;DHT22;73871;49.900;8.594;2024-03-23T06:57:30;8.20;99.90
13980;DHT22;73871;49.900;8.594;2024-03-23T06:59:56;8.10;99.90
13980;DHT22;73871;49.900;8.594;2024-03-23T07:02:21;8.10;99.90
13980;DHT22;73871;49.900;8.594;2024-03-23T07:04:48;8.00;99.90
13980;DHT22;73871;49.900;8.594;2024-03-23T07:07:14;8.00;99.90
13980;DHT22;73871;49.900;8.594;2024-03-23T07:09:39;7.90;99.90
13980;DHT22;73871;49.900;8.594;2024-03-23T07:12:05;7.90;99.90
13980;DHT22;73871;49.900;8.594;2024-03-23T07:14:31;7.90;99.90
13980;DHT22;73871;49.900;8.594;2024-03-23T07:16:57;8.20;99.90
13980;DHT22;73871;49.900;8.594;2024-03-23T07:19:23;8.60;99.90
13980;DHT22;73871;49.900;8.594;2024-03-23T07:21:50;8.80;99.90
13980;DHT22;73871;49.900;8.594;2024-03-23T07:24:16;9.00;99.90
13980;DHT22;73871;49.900;8.594;2024-03-23T07:26:41;9.10;99.90
13980;DHT22;73871;49.900;8.594;2024-03-23T07:29:07;9.10;99.90
13980;DHT22;73871;49.900;8.594;2024-03-23T07:31:33;9.10;99.90
13980;DHT22;73871;49.900;8.594;2024-03-23T07:33:59;9.30;99.90
13980;DHT22;73871;49.900;8.594;2024-03-23T07:36:25;9.20;99.90
13980;DHT22;73871;49.900;8.594;2024-03-23T07:38:51;9.20;99.90
13980;DHT22;73871;49.900;8.594;2024-03-23T07:41:19;9.30;99.90
13980;DHT22;73871;49.900;8.594;2024-03-23T07:43:46;9.30;99.90
13980;DHT22;73871;49.900;8.594;2024-03-23T07:46:12;9.30;99.90
13980;DHT22;73871;49.900;8.594;2024-03-23T07:48:39;9.30;99.90
13980;DHT22;73871;49.900;8.594;2024-03-23T07:51:08;9.50;99.90
13980;DHT22;73871;49.900;8.594;2024-03-23T07:53:35;9.80;99.90
13980;DHT22;73871;49.900;8.594;2024-03-23T07:56:08;10.20;99.90
13980;DHT22;73871;49.900;8.594;2024-03-23T07:58:35;10.60;99.90
13980;DHT22;73871;49.900;8.594;2024-03-23T08:01:07;11.10;99.90
13980;DHT22;73871;49.900;8.594;2024-03-23T08:03:36;11.30;99.90
13980;DHT22;73871;49.900;8.594;2024-03-23T08:06:18;11.70;99.90
13980;DHT22;73871;49.900;8.594;2024-03-23T08:08:53;12.10;99.90
13980;DHT22;73871;49.900;8.594;2024-03-23T08:11:29;11.50;99.90
13980;DHT22;73871;49.900;8.594;2024-03-23T08:13:55;10.90;99.90
13980;DHT22;73871;49.900;8.594;2024-03-23T08:16:21;10.50;99.90
13980;DHT22;73871;49.900;8.594;2024-03-23T08:18:47;10.50;99.90
13980;DHT22;73871;49.900;8.594;2024-03-23T08:21:13;10.40;99.90
13980;DHT22;73871;49.900;8.594;2024-03-23T08:23:39;10.20;99.90
13980;DHT22;73871;49.900;8.594;2024-03-23T08:26:15;10.10;99.90
13980;DHT22;73871;49.900;8.594;2024-03-23T08:28:41;11.10;99.90
13980;DHT22;73871;49.900;8.594;2024-03-23T08:31:08;13.40;99.90
13980;DHT22;73871;49.900;8.594;2024-03-23T08:33:35;17.40;99.90
13980;DHT22;73871;49.900;8.594;2024-03-23T08:36:06;18.70;99.90
13980;DHT22;73871;49.900;8.594;2024-03-23T08:38:32;19.90;99.90
13980;DHT22;73871;49.900;8.594;2024-03-23T08:43:32;22.80;99.90
13980;DHT22;73871;49.900;8.594;2024-03-23T08:46:05;21.20;99.90
13980;DHT22;73871;49.900;8.594;2024-03-23T08:48:32;19.60;99.90
13980;DHT22;73871;49.900;8.594;2024-03-23T08:51:08;19.10;99.90
13980;DHT22;73871;49.900;8.594;2024-03-23T08:53:35;18.50;99.90
13980;DHT22;73871;49.900;8.594;2024-03-23T08:56:01;18.20;99.90
13980;DHT22;73871;49.900;8.594;2024-03-23T08:58:29;20.30;99.90
13980;DHT22;73871;49.900;8.594;2024-03-23T09:00:57;21.30;99.90
13980;DHT22;73871;49.900;8.594;2024-03-23T09:03:28;21.90;99.90
13980;DHT22;73871;49.900;8.594;2024-03-23T09:05:54;22.30;99.90
13980;DHT22;73871;49.900;8.594;2024-03-23T09:08:21;23.50;99.90
13980;DHT22;73871;49.900;8.594;2024-03-23T09:10:47;24.50;99.90
13980;DHT22;73871;49.900;8.594;2024-03-23T09:13:13;24.30;99.90
13980;DHT22;73871;49.900;8.594;2024-03-23T09:16:06;21.40;99.90
13980;DHT22;73871;49.900;8.594;2024-03-23T09:18:33;18.30;99.90
13980;DHT22;73871;49.900;8.594;2024-03-23T09:20:59;17.30;99.90
13980;DHT22;73871;49.900;8.594;2024-03-23T09:23:25;17.20;99.90
13980;DHT22;73871;49.900;8.594;2024-03-23T09:25:51;16.80;99.90
13980;DHT22;73871;49.900;8.594;2024-03-23T09:28:16;15.80;99.90
13980;DHT22;73871;49.900;8.594;2024-03-23T09:30:42;15.20;99.90
13980;DHT22;73871;49.900;8.594;2024-03-23T09:33:12;15.10;99.90
13980;DHT22;73871;49.900;8.594;2024-03-23T09:35:39;15.10;99.90
13980;DHT22;73871;49.900;8.594;2024-03-23T09:38:04;14.70;99.90
13980;DHT22;73871;49.900;8.594;2024-03-23T09:40:31;14.10;99.90
13980;DHT22;73871;49.900;8.594;2024-03-23T09:42:57;13.90;99.90
13980;DHT22;73871;49.900;8.594;2024-03-23T09:45:27;13.70;99.90
13980;DHT22;73871;49.900;8.594;2024-03-23T09:47:54;13.50;99.90
13980;DHT22;73871;49.900;8.594;2024-03-23T09:50:20;14.00;99.90
13980;DHT22;73871;49.900;8.594;2024-03-23T09:52:46;14.70;99.90
13980;DHT22;73871;49.900;8.594;2024-03-23T09:55:12;14.20;99.90
13980;DHT22;73871;49.900;8.594;2024-03-23T09:57:42;13.70;99.90
13980;DHT22;73871;49.900;8.594;2024-03-23T10:00:09;13.20;99.90
13980;DHT22;73871;49.900;8.594;2024-03-23T10:02:35;13.00;99.90
13980;DHT22;73871;49.900;8.594;2024-03-23T10:05:01;13.00;99.90
13980;DHT22;73871;49.900;8.594;2024-03-23T10:07:27;13.10;99.90
13980;DHT22;73871;49.900;8.594;2024-03-23T10:09:56;13.30;99.90
13980;DHT22;73871;49.900;8.594;2024-03-23T10:12:23;13.50;99.90
13980;DHT22;73871;49.900;8.594;2024-03-23T10:14:49;13.40;99.90
13980;DHT22;73871;49.900;8.594;2024-03-23T10:17:19;13.20;99.90
13980;DHT22;73871;49.900;8.594;2024-03-23T10:19:46;13.00;99.90
13980;DHT22;73871;49.900;8.594;2024-03-23T10:22:14;14.40;99.90
13980;DHT22;73871;49.900;8.594;2024-03-23T10:24:41;15.00;99.90
13980;DHT22;73871;49.900;8.594;2024-03-23T10:27:07;14.70;99.90
13980;DHT22;73871;49.900;8.594;2024-03-23T10:29:33;14.20;99.90
13980;DHT22;73871;49.900;8.594;2024-03-23T10:32:09;13.90;99.90
13980;DHT22;73871;49.900;8.594;2024-03-23T10:34:36;13.50;99.90
13980;DHT22;73871;49.900;8.594;2024-03-23T10:37:03;13.60;99.90
13980;DHT22;73871;49.900;8.594;2024-03-23T10:39:37;13.70;99.90
13980;DHT22;73871;49.900;8.594;2024-03-23T10:42:04;14.30;99.90
13980;DHT22;73871;49.900;8.594;2024-03-23T10:44:31;15.10;99.90
13980;DHT22;73871;49.900;8.594;2024-03-23T10:47:01;15.30;99.90
13980;DHT22;73871;49.900;8.594;2024-03-23T10:49:36;14.50;99.90
13980;DHT22;73871;49.900;8.594;2024-03-23T10:52:03;13.40;99.90
13980;DHT22;73871;49.900;8.594;2024-03-23T10:54:33;12.40;99.90
13980;DHT22;73871;49.900;8.594;2024-03-23T10:57:10;11.30;99.90
13980;DHT22;73871;49.900;8.594;2024-03-23T10:59:38;10.70;99.90
13980;DHT22;73871;49.900;8.594;2024-03-23T11:02:05;10.10;99.90
13980;DHT22;73871;49.900;8.594;2024-03-23T11:04:36;9.80;99.90
13980;DHT22;73871;49.900;8.594;2024-03-23T11:09:53;8.90;99.90
13980;DHT22;73871;49.900;8.594;2024-03-23T11:17:22;8.30;99.90
13980;DHT22;73871;49.900;8.594;2024-03-23T11:20:02;8.40;99.90
13980;DHT22;73871;49.900;8.594;2024-03-23T11:25:17;8.50;99.90
13980;DHT22;73871;49.900;8.594;2024-03-23T11:27:44;8.30;99.90
13980;DHT22;73871;49.900;8.594;2024-03-23T11:32:44;8.40;99.90
13980;DHT22;73871;49.900;8.594;2024-03-23T11:35:24;8.50;99.90
13980;DHT22;73871;49.900;8.594;2024-03-23T11:38:10;8.70;99.90
13980;DHT22;73871;49.900;8.594;2024-03-23T11:40:41;9.20;99.90
13980;DHT22;73871;49.900;8.594;2024-03-23T11:43:15;9.70;99.90
13980;DHT22;73871;49.900;8.594;2024-03-23T11:45:46;10.10;99.90
13980;DHT22;73871;49.900;8.594;2024-03-23T11:48:14;10.20;99.90
13980;DHT22;73871;49.900;8.594;2024-03-23T11:50:41;10.60;99.90
13980;DHT22;73871;49.900;8.594;2024-03-23T11:53:18;11.30;99.90
13980;DHT22;73871;49.900;8.594;2024-03-23T11:55:48;11.30;99.90
13980;DHT22;73871;49.900;8.594;2024-03-23T11:58:16;11.20;99.90
13980;DHT22;73871;49.900;8.594;2024-03-23T12:00:42;10.70;99.90
13980;DHT22;73871;49.900;8.594;2024-03-23T12:03:08;10.90;99.90
13980;DHT22;73871;49.900;8.594;2024-03-23T12:05:36;11.40;99.90
13980;DHT22;73871;49.900;8.594;2024-03-23T12:08:22;11.80;99.90
13980;DHT22;73871;49.900;8.594;2024-03-23T12:10:52;12.00;99.90
13980;DHT22;73871;49.900;8.594;2024-03-23T12:13:20;12.20;99.90
13980;DHT22;73871;49.900;8.594;2024-03-23T12:15:47;12.40;99.90
13980;DHT22;73871;49.900;8.594;2024-03-23T12:18:13;12.50;99.90
13980;DHT22;73871;49.900;8.594;2024-03-23T12:20:39;12.50;99.90
13980;DHT22;73871;49.900;8.594;2024-03-23T12:23:06;12.60;99.90
13980;DHT22;73871;49.900;8.594;2024-03-23T12:25:32;12.70;99.90
13980;DHT22;73871;49.900;8.594;2024-03-23T12:28:01;12.90;99.90
13980;DHT22;73871;49.900;8.594;2024-03-23T12:30:27;12.80;99.90
13980;DHT22;73871;49.900;8.594;2024-03-23T12:32:53;12.90;99.90
13980;DHT22;73871;49.900;8.594;2024-03-23T12:35:19;12.80;99.90
13980;DHT22;73871;49.900;8.594;2024-03-23T12:37:45;12.40;99.90
13980;DHT22;73871;49.900;8.594;2024-03-23T12:40:11;12.20;99.90
13980;DHT22;73871;49.900;8.594;2024-03-23T12:42:37;12.20;99.90
13980;DHT22;73871;49.900;8.594;2024-03-23T12:45:03;11.80;99.90
13980;DHT22;73871;49.900;8.594;2024-03-23T12:47:32;11.70;99.90
13980;DHT22;73871;49.900;8.594;2024-03-23T12:49:58;11.60;99.90
13980;DHT22;73871;49.900;8.594;2024-03-23T12:52:24;11.30;99.90
13980;DHT22;73871;49.900;8.594;2024-03-23T12:54:56;11.30;99.90
13980;DHT22;73871;49.900;8.594;2024-03-23T12:57:23;11.30;99.90
13980;DHT22;73871;49.900;8.594;2024-03-23T12:59:50;11.40;99.90
13980;DHT22;73871;49.900;8.594;2024-03-23T13:02:20;11.40;99.90
13980;DHT22;73871;49.900;8.594;2024-03-23T13:04:55;11.10;99.90
13980;DHT22;73871;49.900;8.594;2024-03-23T13:07:22;10.40;99.90
13980;DHT22;73871;49.900;8.594;2024-03-23T13:09:52;10.00;99.90
13980;DHT22;73871;49.900;8.594;2024-03-23T13:12:22;9.70;99.90
13980;DHT22;73871;49.900;8.594;2024-03-23T13:14:47;9.10;99.90
13980;DHT22;73871;49.900;8.594;2024-03-23T13:17:13;8.50;99.90
13980;DHT22;73871;49.900;8.594;2024-03-23T13:19:39;7.90;99.90
13980;DHT22;73871;49.900;8.594;2024-03-23T13:22:05;7.30;99.90
13980;DHT22;73871;49.900;8.594;2024-03-23T13:24:31;7.00;99.90
13980;DHT22;73871;49.900;8.594;2024-03-23T13:26:57;6.80;99.90
13980;DHT22;73871;49.900;8.594;2024-03-23T13:29:24;6.90;99.90
13980;DHT22;73871;49.900;8.594;2024-03-23T13:31:51;7.00;99.90
13980;DHT22;73871;49.900;8.594;2024-03-23T13:34:18;7.60;99.90
13980;DHT22;73871;49.900;8.594;2024-03-23T13:36:45;8.10;99.90
13980;DHT22;73871;49.900;8.594;2024-03-23T13:39:11;8.30;99.90
13980;DHT22;73871;49.900;8.594;2024-03-23T13:41:41;8.50;99.90
13980;DHT22;73871;49.900;8.594;2024-03-23T13:44:08;8.90;99.90
13980;DHT22;73871;49.900;8.594;2024-03-23T13:46:38;9.30;99.90
13980;DHT22;73871;49.900;8.594;2024-03-23T13:49:05;9.80;99.90
13980;DHT22;73871;49.900;8.594;2024-03-23T13:51:32;10.10;99.90
13980;DHT22;73871;49.900;8.594;2024-03-23T13:53:58;10.10;99.90
13980;DHT22;73871;49.900;8.594;2024-03-23T13:56:27;10.00;99.90
13980;DHT22;73871;49.900;8.594;2024-03-23T13:58:58;9.90;99.90
13980;DHT22;73871;49.900;8.594;2024-03-23T14:01:23;9.80;99.90
13980;DHT22;73871;49.900;8.594;2024-03-23T14:03:49;9.90;99.90
13980;DHT22;73871;49.900;8.594;2024-03-23T14:06:15;9.70;99.90
13980;DHT22;73871;49.900;8.594;2024-03-23T14:08:41;9.70;99.90
13980;DHT22;73871;49.900;8.594;2024-03-23T14:11:09;9.80;99.90
13980;DHT22;73871;49.900;8.594;2024-03-23T14:13:36;9.90;99.90
13980;DHT22;73871;49.900;8.594;2024-03-23T14:16:02;10.00;99.90
13980;DHT22;73871;49.900;8.594;2024-03-23T14:18:28;10.40;99.90
13980;DHT22;73871;49.900;8.594;2024-03-23T14:20:59;10.50;99.90
13980;DHT22;73871;49.900;8.594;2024-03-23T14:23:26;10.70;99.90
13980;DHT22;73871;49.900;8.594;2024-03-23T14:25:53;10.70;99.90
13980;DHT22;73871;49.900;8.594;2024-03-23T14:28:20;10.50;99.90
13980;DHT22;73871;49.900;8.594;2024-03-23T14:30:46;10.20;99.90
13980;DHT22;73871;49.900;8.594;2024-03-23T14:33:11;10.30;99.90
13980;DHT22;73871;49.900;8.594;2024-03-23T14:35:38;10.40;99.90
13980;DHT22;73871;49.900;8.594;2024-03-23T14:38:04;10.40;99.90
13980;DHT22;73871;49.900;8.594;2024-03-23T14:40:30;10.30;99.90
13980;DHT22;73871;49.900;8.594;2024-03-23T14:42:55;10.10;99.90
13980;DHT22;73871;49.900;8.594;2024-03-23T14:45:21;10.10;99.90
13980;DHT22;73871;49.900;8.594;2024-03-23T14:47:49;10.20;99.90
13980;DHT22;73871;49.900;8.594;2024-03-23T14:50:15;10.50;99.90
13980;DHT22;73871;49.900;8.594;2024-03-23T14:52:44;11.00;99.90
13980;DHT22;73871;49.900;8.594;2024-03-23T14:55:11;11.20;99.90
13980;DHT22;73871;49.900;8.594;2024-03-23T14:57:37;10.80;99.90
13980;DHT22;73871;49.900;8.594;2024-03-23T15:00:09;10.40;99.90
13980;DHT22;73871;49.900;8.594;2024-03-23T15:02:39;10.30;99.90
13980;DHT22;73871;49.900;8.594;2024-03-23T15:05:05;10.00;99.90
13980;DHT22;73871;49.900;8.594;2024-03-23T15:07:38;9.90;99.90
13980;DHT22;73871;49.900;8.594;2024-03-23T15:10:06;9.80;99.90
13980;DHT22;73871;49.900;8.594;2024-03-23T15:12:32;9.90;99.90
13980;DHT22;73871;49.900;8.594;2024-03-23T15:14:59;10.10;99.90
13980;DHT22;73871;49.900;8.594;2024-03-23T15:17:26;10.20;99.90
13980;DHT22;73871;49.900;8.594;2024-03-23T15:19:52;10.20;99.90
13980;DHT22;73871;49.900;8.594;2024-03-23T15:22:19;10.10;99.90
13980;DHT22;73871;49.900;8.594;2024-03-23T15:24:46;10.00;99.90
13980;DHT22;73871;49.900;8.594;2024-03-23T15:27:13;10.00;99.90
13980;DHT22;73871;49.900;8.594;2024-03-23T15:29:38;9.90;99.90
13980;DHT22;73871;49.900;8.594;2024-03-23T15:32:04;9.70;99.90
13980;DHT22;73871;49.900;8.594;2024-03-23T15:34:30;9.60;99.90
13980;DHT22;73871;49.900;8.594;2024-03-23T15:36:57;9.60;99.90
13980;DHT22;73871;49.900;8.594;2024-03-23T15:39:22;9.60;99.90
13980;DHT22;73871;49.900;8.594;2024-03-23T15:41:48;9.60;99.90
13980;DHT22;73871;49.900;8.594;2024-03-23T15:44:14;9.50;99.90
13980;DHT22;73871;49.900;8.594;2024-03-23T15:46:40;9.40;99.90
13980;DHT22;73871;49.900;8.594;2024-03-23T15:49:06;9.30;99.90
13980;DHT22;73871;49.900;8.594;2024-03-23T15:51:32;9.10;99.90
13980;DHT22;73871;49.900;8.594;2024-03-23T15:54:00;9.10;99.90
13980;DHT22;73871;49.900;8.594;2024-03-23T15:56:26;9.10;99.90
13980;DHT22;73871;49.900;8.594;2024-03-23T15:58:52;9.10;99.90
13980;DHT22;73871;49.900;8.594;2024-03-23T16:01:18;9.20;99.90
13980;DHT22;73871;49.900;8.594;2024-03-23T16:03:44;9.30;99.90
13980;DHT22;73871;49.900;8.594;2024-03-23T16:06:10;9.60;99.90
13980;DHT22;73871;49.900;8.594;2024-03-23T16:08:36;9.80;99.90
13980;DHT22;73871;49.900;8.594;2024-03-23T16:11:06;9.90;99.90
13980;DHT22;73871;49.900;8.594;2024-03-23T16:13:34;9.80;99.90
13980;DHT22;73871;49.900;8.594;2024-03-23T16:16:01;9.60;99.90
13980;DHT22;73871;49.900;8.594;2024-03-23T16:18:34;9.40;99.90
13980;DHT22;73871;49.900;8.594;2024-03-23T16:21:01;9.20;99.90
13980;DHT22;73871;49.900;8.594;2024-03-23T16:23:28;9.10;99.90
13980;DHT22;73871;49.900;8.594;2024-03-23T16:25:56;9.00;99.90
13980;DHT22;73871;49.900;8.594;2024-03-23T16:28:23;8.90;99.90
13980;DHT22;73871;49.900;8.594;2024-03-23T16:30:59;8.80;99.90
13980;DHT22;73871;49.900;8.594;2024-03-23T16:33:26;8.70;99.90
13980;DHT22;73871;49.900;8.594;2024-03-23T16:36:09;8.60;99.90
13980;DHT22;73871;49.900;8.594;2024-03-23T16:38:36;8.60;99.90
13980;DHT22;73871;49.900;8.594;2024-03-23T16:43:33;8.70;99.90
13980;DHT22;73871;49.900;8.594;2024-03-23T16:46:04;8.70;99.90
13980;DHT22;73871;49.900;8.594;2024-03-23T16:48:31;8.60;99.90